Time;durP1;ratioP1;P1;durP2;ratioP2;P2;SDS_P1;SDS_P2;PMS_P1;PMS_P2;Temp;Humidity;BMP_temperature;BMP_pressure;BME280_temperature;BME280_humidity;BME280_pressure;Samples;Min_cycle;Max_cycle;Signal;HPM_P1;HPM_P2
2021/11/04 00:02:07;;;;;;;66.25;40.85;;;6.70;99.90;;;;;;5040742;28;20028;-75
2021/11/04 00:04:33;;;;;;;64.85;41.47;;;7.00;99.90;;;;;;5037306;28;20036;-75
2021/11/04 00:06:59;;;;;;;59.75;38.65;;;6.70;99.90;;;;;;5043415;28;20029;-74
2021/11/04 00:09:24;;;;;;;64.18;39.95;;;6.70;99.90;;;;;;5041727;28;20025;-75
2021/11/04 00:11:50;;;;;;;62.20;40.70;;;6.70;99.90;;;;;;5046956;28;20511;-75
2021/11/04 00:14:16;;;;;;;67.60;41.03;;;6.70;99.90;;;;;;5044071;28;20033;-75
2021/11/04 00:16:42;;;;;;;49.67;34.90;;;6.80;99.90;;;;;;5047464;28;20029;-74
2021/11/04 00:19:08;;;;;;;63.35;39.40;;;7.00;99.90;;;;;;5050555;28;20037;-75
2021/11/04 00:21:33;;;;;;;41.63;30.50;;;7.00;99.90;;;;;;5042736;28;20429;-74
2021/11/04 00:23:59;;;;;;;63.35;39.08;;;7.10;99.90;;;;;;5046861;28;20104;-75
2021/11/04 00:26:24;;;;;;;88.43;45.38;;;7.10;99.90;;;;;;5042836;28;20017;-76
2021/11/04 00:28:50;;;;;;;36.53;29.45;;;7.00;99.90;;;;;;5035925;28;20033;-74
2021/11/04 00:31:15;;;;;;;44.10;32.95;;;7.10;99.90;;;;;;5044350;28;20029;-75
2021/11/04 00:33:43;;;;;;;45.80;34.00;;;7.10;99.90;;;;;;5046605;28;20100;-74
2021/11/04 00:36:09;;;;;;;44.30;30.75;;;7.10;99.90;;;;;;5043796;28;20025;-74
2021/11/04 00:38:35;;;;;;;32.70;27.15;;;7.20;99.90;;;;;;5043152;28;20029;-74
2021/11/04 00:41:01;;;;;;;54.00;35.88;;;7.20;99.90;;;;;;5042356;28;20078;-75
2021/11/04 00:43:26;;;;;;;51.58;35.08;;;7.20;99.90;;;;;;5040792;28;20099;-75
2021/11/04 00:45:52;;;;;;;50.28;34.00;;;7.30;99.90;;;;;;5047760;28;20022;-74
2021/11/04 00:48:17;;;;;;;62.95;39.28;;;7.20;99.90;;;;;;5049274;28;20025;-75
2021/11/04 00:50:43;;;;;;;47.65;33.83;;;7.10;99.90;;;;;;5038981;28;20022;-76
2021/11/04 00:53:08;;;;;;;85.50;48.15;;;7.20;99.90;;;;;;5044439;28;20027;-75
2021/11/04 00:55:34;;;;;;;47.17;35.67;;;7.20;99.90;;;;;;5039778;28;20034;-75
2021/11/04 00:58:00;;;;;;;48.42;34.70;;;7.20;99.90;;;;;;5040796;28;20029;-74
2021/11/04 01:00:25;;;;;;;46.78;34.30;;;7.20;99.90;;;;;;5043495;28;20112;-75
2021/11/04 01:02:51;;;;;;;55.65;37.30;;;7.10;99.90;;;;;;5041767;28;20075;-74
2021/11/04 01:05:17;;;;;;;66.07;40.25;;;7.10;99.90;;;;;;5042558;28;20491;-75
2021/11/04 01:07:42;;;;;;;53.50;34.78;;;7.10;99.90;;;;;;5039670;28;20017;-75
2021/11/04 01:10:08;;;;;;;61.65;39.15;;;7.10;99.90;;;;;;5031260;28;20032;-74
2021/11/04 01:12:34;;;;;;;53.42;35.33;;;7.20;99.90;;;;;;5048607;28;20020;-75
2021/11/04 01:15:00;;;;;;;52.05;34.40;;;7.30;99.90;;;;;;5046428;28;20024;-75
2021/11/04 01:17:25;;;;;;;61.25;37.80;;;7.30;99.90;;;;;;5043279;28;20022;-75
2021/11/04 01:19:51;;;;;;;52.50;34.03;;;7.30;99.90;;;;;;5044505;28;20037;-75
2021/11/04 01:22:16;;;;;;;43.45;31.77;;;7.30;99.90;;;;;;5042384;28;20029;-75
2021/11/04 01:24:42;;;;;;;45.60;33.65;;;7.20;99.90;;;;;;5044323;28;20475;-74
2021/11/04 01:27:08;;;;;;;56.60;36.55;;;7.30;99.90;;;;;;5040585;28;20021;-74
2021/11/04 01:29:34;;;;;;;38.42;28.92;;;7.30;99.90;;;;;;5041515;28;20024;-74
2021/11/04 01:31:59;;;;;;;42.58;29.83;;;7.30;99.90;;;;;;5045429;28;20399;-74
2021/11/04 01:34:25;;;;;;;40.92;30.58;;;7.30;99.90;;;;;;5043580;28;20422;-74
2021/11/04 01:36:51;;;;;;;41.17;30.13;;;7.30;99.90;;;;;;5039025;28;20401;-76
2021/11/04 01:39:16;;;;;;;53.60;34.70;;;7.30;99.90;;;;;;5032070;28;20458;-76
2021/11/04 01:41:42;;;;;;;54.28;35.63;;;7.30;99.90;;;;;;5022950;28;20030;-75
2021/11/04 01:44:08;;;;;;;72.15;39.40;;;7.20;99.90;;;;;;5028932;28;20045;-76
2021/11/04 01:46:33;;;;;;;74.45;41.30;;;7.20;99.90;;;;;;5023217;28;20504;-75
2021/11/04 01:48:59;;;;;;;189.48;55.10;;;7.10;99.90;;;;;;5026822;28;20064;-75
2021/11/04 01:51:25;;;;;;;260.55;60.85;;;6.90;99.90;;;;;;5013210;28;20018;-75
2021/11/04 01:53:51;;;;;;;247.50;55.35;;;6.80;99.90;;;;;;5027294;28;20053;-75
2021/11/04 01:56:17;;;;;;;404.80;73.50;;;6.70;99.90;;;;;;5024723;28;20022;-75
2021/11/04 01:58:43;;;;;;;385.50;77.85;;;6.60;99.90;;;;;;5026622;28;20427;-75
2021/11/04 02:01:09;;;;;;;112.38;47.53;;;6.50;99.90;;;;;;5011576;28;20539;-75
2021/11/04 02:03:51;;;;;;;71.97;40.83;;;6.50;99.90;;;;;;5026182;28;20112;-75
2021/11/04 02:06:31;;;;;;;112.70;48.60;;;6.60;99.90;;;;;;5024016;28;20543;-75
2021/11/04 02:09:09;;;;;;;63.33;37.45;;;6.70;99.90;;;;;;5019205;28;20534;-75
2021/11/04 02:11:42;;;;;;;54.13;34.42;;;6.80;99.90;;;;;;5019204;28;20685;-74
2021/11/04 02:14:18;;;;;;;91.70;44.10;;;6.90;99.90;;;;;;5024491;28;20034;-75
2021/11/04 02:16:44;;;;;;;90.93;44.03;;;7.00;99.90;;;;;;5026258;28;20033;-76
2021/11/04 02:19:38;;;;;;;55.65;35.03;;;7.00;99.90;;;;;;5022256;28;20033;-75
2021/11/04 02:22:08;;;;;;;99.35;45.78;;;7.00;99.90;;;;;;5018212;28;20083;-75
2021/11/04 02:24:45;;;;;;;77.88;40.92;;;7.00;99.90;;;;;;5019460;28;20018;-75
2021/11/04 02:27:13;;;;;;;83.50;42.90;;;7.10;99.90;;;;;;5023243;28;20022;-75
2021/11/04 02:29:41;;;;;;;94.85;44.83;;;7.10;99.90;;;;;;5024670;28;20442;-74
2021/11/04 02:32:09;;;;;;;90.55;41.78;;;7.10;99.90;;;;;;5020376;28;20021;-75
2021/11/04 02:34:37;;;;;;;98.70;45.13;;;7.00;99.90;;;;;;5018630;28;20480;-74
2021/11/04 02:37:03;;;;;;;116.55;49.38;;;7.00;99.90;;;;;;5021938;28;20468;-75
2021/11/04 02:39:30;;;;;;;108.18;47.97;;;7.00;99.90;;;;;;5033467;28;20180;-74
2021/11/04 02:41:56;;;;;;;108.38;46.72;;;6.90;99.90;;;;;;5041087;28;20033;-74
2021/11/04 02:44:26;;;;;;;119.75;48.75;;;6.80;99.90;;;;;;5027838;28;20480;-74
2021/11/04 02:46:55;;;;;;;117.57;48.22;;;6.90;99.90;;;;;;5028000;28;20496;-75
2021/11/04 02:49:23;;;;;;;81.32;42.55;;;6.90;99.90;;;;;;5031862;28;20028;-74
2021/11/04 02:51:48;;;;;;;107.07;46.40;;;6.90;99.90;;;;;;5031680;28;20039;-76
2021/11/04 02:54:14;;;;;;;91.28;44.35;;;6.90;99.90;;;;;;5018986;28;20391;-75
2021/11/04 02:56:44;;;;;;;111.75;48.63;;;6.90;99.90;;;;;;5019870;28;20025;-74
2021/11/04 02:59:12;;;;;;;89.32;44.28;;;6.80;99.90;;;;;;5025399;28;20026;-75
2021/11/04 03:01:43;;;;;;;92.53;44.50;;;6.90;99.90;;;;;;5012166;28;20111;-74
2021/11/04 03:04:09;;;;;;;104.03;45.88;;;6.80;99.90;;;;;;5017802;28;20025;-73
2021/11/04 03:06:35;;;;;;;90.53;43.55;;;6.80;99.90;;;;;;5018685;28;20045;-73
2021/11/04 03:09:01;;;;;;;112.25;48.80;;;6.80;99.90;;;;;;5024831;28;20045;-74
2021/11/04 03:11:27;;;;;;;103.55;46.22;;;6.80;99.90;;;;;;5012192;28;20072;-74
2021/11/04 03:13:52;;;;;;;83.40;40.38;;;6.80;99.90;;;;;;5023425;28;20480;-75
2021/11/04 03:16:19;;;;;;;90.45;43.15;;;6.90;99.90;;;;;;5025278;28;20039;-74
2021/11/04 03:18:45;;;;;;;96.43;44.70;;;6.80;99.90;;;;;;5017762;28;20056;-75
2021/11/04 03:21:12;;;;;;;92.82;44.60;;;6.80;99.90;;;;;;5018292;28;20061;-75
2021/11/04 03:23:37;;;;;;;113.72;47.28;;;6.80;99.90;;;;;;5024420;28;20041;-74
2021/11/04 03:26:04;;;;;;;94.72;44.80;;;6.80;99.90;;;;;;5025085;28;20017;-75
2021/11/04 03:28:31;;;;;;;82.00;40.30;;;6.90;99.90;;;;;;5017781;28;20037;-74
2021/11/04 03:30:58;;;;;;;81.68;41.40;;;6.90;99.90;;;;;;5018033;28;20026;-74
2021/11/04 03:33:26;;;;;;;94.05;44.78;;;6.90;99.90;;;;;;5022942;28;20029;-75
2021/11/04 03:35:55;;;;;;;87.45;43.13;;;6.90;99.90;;;;;;5025114;28;20021;-74
2021/11/04 03:38:21;;;;;;;100.78;45.28;;;6.90;99.90;;;;;;5019571;28;20387;-75
2021/11/04 03:40:47;;;;;;;94.10;44.00;;;6.90;99.90;;;;;;5031293;28;20030;-74
2021/11/04 03:43:14;;;;;;;85.45;41.28;;;6.90;99.90;;;;;;5023432;28;20022;-75
2021/11/04 03:45:40;;;;;;;102.65;44.67;;;6.90;99.90;;;;;;5029843;28;20022;-74
2021/11/04 03:48:07;;;;;;;102.07;45.50;;;6.90;99.90;;;;;;5027565;28;20030;-74
2021/11/04 03:50:33;;;;;;;100.80;46.25;;;6.90;99.90;;;;;;5028936;28;20022;-75
2021/11/04 03:53:00;;;;;;;121.75;48.10;;;6.90;99.90;;;;;;5024360;28;20037;-74
2021/11/04 03:55:28;;;;;;;102.05;45.00;;;6.90;99.90;;;;;;5021726;28;20108;-74
2021/11/04 03:57:54;;;;;;;103.78;45.03;;;6.90;99.90;;;;;;5026743;28;20029;-74
2021/11/04 04:00:20;;;;;;;105.15;44.92;;;6.90;99.90;;;;;;5028515;28;20026;-74
2021/11/04 04:02:48;;;;;;;90.32;41.25;;;6.90;99.90;;;;;;5023134;28;20100;-73
2021/11/04 04:05:14;;;;;;;110.13;45.55;;;6.80;99.90;;;;;;5021623;28;20097;-74
2021/11/04 04:07:40;;;;;;;91.40;42.30;;;6.90;99.90;;;;;;5025347;28;20118;-74
2021/11/04 04:10:06;;;;;;;103.50;43.20;;;7.00;99.90;;;;;;5028465;28;20017;-74
2021/11/04 04:12:32;;;;;;;105.72;44.00;;;6.90;99.90;;;;;;5023389;28;20026;-74
2021/11/04 04:14:57;;;;;;;76.38;38.80;;;7.10;99.90;;;;;;5021524;28;20518;-74
2021/11/04 04:17:23;;;;;;;111.90;46.55;;;6.90;99.90;;;;;;5026292;28;20040;-74
2021/11/04 04:19:50;;;;;;;141.85;49.72;;;6.90;99.90;;;;;;5027038;28;20116;-74
2021/11/04 04:22:16;;;;;;;114.93;45.95;;;6.90;99.90;;;;;;5022775;28;20444;-75
2021/11/04 04:24:41;;;;;;;77.07;39.22;;;7.00;99.90;;;;;;5020085;28;20116;-75
2021/11/04 04:27:07;;;;;;;101.22;42.88;;;7.00;99.90;;;;;;5026697;28;20113;-74
2021/11/04 04:29:33;;;;;;;97.00;41.60;;;6.90;99.90;;;;;;5015898;28;20049;-74
2021/11/04 04:31:59;;;;;;;94.05;41.33;;;6.90;99.90;;;;;;5025160;28;20030;-74
2021/11/04 04:34:25;;;;;;;85.75;39.97;;;6.70;99.90;;;;;;5029103;28;20022;-74
2021/11/04 04:36:51;;;;;;;89.30;39.85;;;6.80;99.90;;;;;;5032966;28;20487;-75
2021/11/04 04:39:16;;;;;;;96.50;41.70;;;6.80;99.90;;;;;;5036612;28;20029;-74
2021/11/04 04:41:42;;;;;;;82.88;39.70;;;6.70;99.90;;;;;;5035200;28;20048;-74
2021/11/04 04:44:07;;;;;;;117.40;42.05;;;6.70;99.90;;;;;;5030085;28;20029;-74
2021/11/04 04:46:33;;;;;;;66.70;35.35;;;6.80;99.90;;;;;;5025535;28;20021;-75
2021/11/04 04:48:59;;;;;;;67.65;32.85;;;6.80;99.90;;;;;;5027608;28;20479;-75
2021/11/04 04:51:24;;;;;;;72.97;33.88;;;6.90;99.90;;;;;;5022940;28;20068;-74
2021/11/04 04:53:50;;;;;;;87.95;36.88;;;6.90;99.90;;;;;;5018809;28;20026;-73
2021/11/04 04:56:15;;;;;;;80.32;36.20;;;6.80;99.90;;;;;;5022111;28;20529;-74
2021/11/04 04:58:41;;;;;;;58.83;30.08;;;6.80;99.90;;;;;;5019632;28;20494;-74
2021/11/04 05:01:07;;;;;;;63.30;32.60;;;6.80;99.90;;;;;;5025174;28;20384;-74
2021/11/04 05:03:32;;;;;;;55.90;30.77;;;6.80;99.90;;;;;;5027322;28;20087;-74
2021/11/04 05:05:57;;;;;;;69.15;32.92;;;6.80;99.90;;;;;;5022855;28;20431;-75
2021/11/04 05:08:23;;;;;;;69.55;33.50;;;6.80;99.90;;;;;;5020889;28;20037;-74
2021/11/04 05:10:49;;;;;;;63.30;31.90;;;6.80;99.90;;;;;;5023812;28;20034;-75
2021/11/04 05:13:14;;;;;;;61.92;31.73;;;6.80;99.90;;;;;;5013886;28;20519;-75
2021/11/04 05:15:40;;;;;;;53.60;29.75;;;6.80;99.90;;;;;;5021186;28;20036;-75
2021/11/04 05:18:08;;;;;;;66.55;31.25;;;6.80;99.90;;;;;;5020260;28;20026;-74
2021/11/04 05:20:34;;;;;;;57.92;30.23;;;6.80;99.90;;;;;;5024622;28;20120;-74
2021/11/04 05:23:00;;;;;;;43.33;25.63;;;6.80;99.90;;;;;;5027848;28;20021;-74
2021/11/04 05:25:25;;;;;;;58.58;29.80;;;6.80;99.90;;;;;;5023700;28;20028;-74
2021/11/04 05:27:51;;;;;;;58.03;29.75;;;6.90;99.90;;;;;;5026823;28;20029;-74
2021/11/04 05:30:18;;;;;;;45.28;26.67;;;6.80;99.90;;;;;;5020877;28;20030;-74
2021/11/04 05:32:44;;;;;;;46.60;27.27;;;6.80;99.90;;;;;;5020179;28;20029;-74
2021/11/04 05:35:10;;;;;;;58.92;29.02;;;6.80;99.90;;;;;;5025061;28;20492;-74
2021/11/04 05:37:35;;;;;;;52.42;30.55;;;6.90;99.90;;;;;;5028757;28;20083;-74
2021/11/04 05:40:01;;;;;;;45.80;27.15;;;6.90;99.90;;;;;;5033382;28;20634;-74
2021/11/04 05:42:27;;;;;;;43.17;27.38;;;6.90;99.90;;;;;;5032924;28;20538;-74
2021/11/04 05:44:52;;;;;;;53.67;29.17;;;6.90;99.90;;;;;;5024707;28;20032;-74
2021/11/04 05:47:18;;;;;;;57.05;28.38;;;6.80;99.90;;;;;;5026470;28;20033;-74
2021/11/04 05:49:44;;;;;;;54.95;29.67;;;6.80;99.90;;;;;;5021704;28;20426;-75
2021/11/04 05:52:10;;;;;;;52.97;30.15;;;6.80;99.90;;;;;;5018013;28;20022;-75
2021/11/04 05:54:36;;;;;;;57.97;28.17;;;6.80;99.90;;;;;;5023540;28;20017;-75
2021/11/04 05:57:02;;;;;;;59.22;29.65;;;6.80;99.90;;;;;;5026640;28;20064;-75
2021/11/04 05:59:27;;;;;;;65.25;29.48;;;6.70;99.90;;;;;;5021387;28;20049;-76
2021/11/04 06:01:53;;;;;;;59.53;30.95;;;6.70;99.90;;;;;;5019479;28;20018;-76
2021/11/04 06:04:20;;;;;;;66.55;33.53;;;6.70;99.90;;;;;;5024679;28;20034;-75
2021/11/04 06:06:46;;;;;;;66.00;30.20;;;6.70;99.90;;;;;;5026394;28;20032;-75
2021/11/04 06:09:11;;;;;;;78.68;34.92;;;6.60;99.90;;;;;;5020881;28;20021;-75
2021/11/04 06:11:37;;;;;;;80.00;32.70;;;6.60;99.90;;;;;;5019189;28;20083;-76
2021/11/04 06:14:03;;;;;;;59.55;30.40;;;6.70;99.90;;;;;;5024764;28;20037;-75
2021/11/04 06:16:28;;;;;;;72.20;30.73;;;6.70;99.90;;;;;;5024645;28;20033;-75
2021/11/04 06:18:54;;;;;;;71.65;30.48;;;6.60;99.90;;;;;;5019500;28;20033;-75
2021/11/04 06:21:20;;;;;;;76.75;31.98;;;6.60;99.90;;;;;;5018890;28;20534;-76
2021/11/04 06:23:45;;;;;;;64.07;30.30;;;6.60;99.90;;;;;;5033463;28;20037;-75
2021/11/04 06:26:11;;;;;;;63.17;30.10;;;6.60;99.90;;;;;;5018777;28;20022;-77
2021/11/04 06:28:37;;;;;;;59.30;29.65;;;6.60;99.90;;;;;;5024302;28;20050;-76
2021/11/04 06:31:03;;;;;;;74.15;33.92;;;6.60;99.90;;;;;;5012347;28;20026;-76
2021/11/04 06:33:28;;;;;;;77.18;34.33;;;6.60;99.90;;;;;;5025184;28;20471;-77
2021/11/04 06:35:54;;;;;;;67.93;31.73;;;6.60;99.90;;;;;;5024541;28;20029;-77
2021/11/04 06:38:22;;;;;;;79.45;34.85;;;6.60;99.90;;;;;;5019022;28;20479;-76
2021/11/04 06:40:48;;;;;;;66.15;31.42;;;6.60;99.90;;;;;;5030926;28;20029;-76
2021/11/04 06:43:14;;;;;;;68.55;33.53;;;6.60;99.90;;;;;;5023868;28;20507;-75
2021/11/04 06:45:51;;;;;;;78.57;35.08;;;6.60;99.90;;;;;;5026949;28;20459;-76
2021/11/04 06:48:23;;;;;;;83.38;36.05;;;6.60;99.90;;;;;;5022198;28;20504;-76
2021/11/04 06:50:50;;;;;;;69.95;33.72;;;6.60;99.90;;;;;;5025266;28;20030;-76
2021/11/04 06:53:21;;;;;;;78.25;35.63;;;6.50;99.90;;;;;;5023344;28;20025;-75
2021/11/04 06:55:51;;;;;;;74.50;33.53;;;6.50;99.90;;;;;;5018806;28;20037;-77
2021/11/04 06:58:18;;;;;;;75.25;36.08;;;6.50;99.90;;;;;;5018286;28;20022;-75
2021/11/04 07:00:46;;;;;;;70.28;34.30;;;6.50;99.90;;;;;;5024178;28;20026;-75
2021/11/04 07:03:26;;;;;;;74.45;34.92;;;6.50;99.90;;;;;;5024674;28;20113;-76
2021/11/04 07:06:08;;;;;;;81.85;37.15;;;6.50;99.90;;;;;;5018788;28;20025;-75
2021/11/04 07:08:43;;;;;;;81.82;38.17;;;6.50;99.90;;;;;;5015194;28;20025;-74
2021/11/04 07:11:09;;;;;;;68.93;32.90;;;6.50;99.90;;;;;;5021666;28;20193;-75
2021/11/04 07:13:35;;;;;;;80.70;36.88;;;6.50;99.90;;;;;;5022955;28;20503;-76
2021/11/04 07:16:02;;;;;;;79.63;38.83;;;6.50;99.90;;;;;;5023200;28;20037;-73
2021/11/04 07:18:28;;;;;;;74.28;38.60;;;6.50;99.90;;;;;;5047651;28;20026;-75
2021/11/04 07:21:03;;;;;;;81.13;38.35;;;6.50;99.90;;;;;;5032149;28;20407;-75
2021/11/04 07:23:46;;;;;;;74.07;37.17;;;6.50;99.90;;;;;;5023729;28;20098;-75
2021/11/04 07:26:12;;;;;;;77.10;37.03;;;6.50;99.90;;;;;;5023790;28;20026;-74
2021/11/04 07:28:40;;;;;;;77.82;36.92;;;6.50;99.90;;;;;;5024961;28;20033;-75
2021/11/04 07:31:09;;;;;;;76.93;37.70;;;6.50;99.90;;;;;;5068726;28;20491;-75
2021/11/04 07:33:36;;;;;;;73.95;37.15;;;6.50;99.90;;;;;;5026912;28;20045;-74
2021/11/04 07:36:03;;;;;;;72.00;36.53;;;6.50;99.90;;;;;;5024741;28;20103;-74
2021/11/04 07:38:31;;;;;;;75.95;37.60;;;6.50;99.90;;;;;;5033338;28;20026;-75
2021/11/04 07:40:57;;;;;;;70.28;37.03;;;6.50;99.90;;;;;;5052745;28;20494;-73
2021/11/04 07:43:24;;;;;;;77.30;37.90;;;6.50;99.90;;;;;;5027380;28;20033;-75
2021/11/04 07:45:50;;;;;;;83.53;41.95;;;6.50;99.90;;;;;;5024878;28;20630;-75
2021/11/04 07:48:15;;;;;;;63.30;34.15;;;6.50;99.90;;;;;;5028707;28;20137;-74
2021/11/04 07:50:41;;;;;;;67.45;35.92;;;6.50;99.90;;;;;;5031363;28;20105;-75
2021/11/04 07:53:06;;;;;;;75.00;38.53;;;6.50;99.90;;;;;;5026445;28;20426;-75
2021/11/04 07:55:32;;;;;;;77.47;38.28;;;6.50;99.90;;;;;;5024742;28;20119;-74
2021/11/04 07:57:57;;;;;;;90.70;46.42;;;6.60;99.90;;;;;;5027166;28;20025;-74
2021/11/04 08:00:28;;;;;;;83.53;39.90;;;6.60;99.90;;;;;;5031508;28;20091;-75
2021/11/04 08:02:54;;;;;;;77.55;39.42;;;6.70;99.90;;;;;;5026378;28;20482;-73
2021/11/04 08:05:20;;;;;;;80.63;39.88;;;6.70;99.90;;;;;;5024820;28;20040;-75
2021/11/04 08:07:46;;;;;;;72.78;37.40;;;6.60;99.90;;;;;;5028044;28;20029;-75
2021/11/04 08:10:14;;;;;;;74.10;39.80;;;6.60;99.90;;;;;;5031281;28;20021;-76
2021/11/04 08:12:40;;;;;;;68.60;37.38;;;6.60;99.90;;;;;;5027144;28;20035;-73
2021/11/04 08:15:08;;;;;;;71.70;38.63;;;6.60;99.90;;;;;;5024615;28;20104;-73
2021/11/04 08:17:34;;;;;;;76.25;39.53;;;6.60;99.90;;;;;;5026016;28;20036;-73
2021/11/04 08:20:00;;;;;;;65.95;36.63;;;6.60;99.90;;;;;;5031448;28;20464;-74
2021/11/04 08:22:26;;;;;;;81.30;40.78;;;6.60;99.90;;;;;;5016571;28;20030;-74
2021/11/04 08:24:51;;;;;;;78.65;39.42;;;6.60;99.90;;;;;;5033909;28;20480;-74
2021/11/04 08:27:18;;;;;;;72.25;38.38;;;6.50;99.90;;;;;;5062396;28;20487;-74
2021/11/04 08:29:46;;;;;;;84.63;39.95;;;6.60;99.90;;;;;;5024200;28;20046;-74
2021/11/04 08:32:12;;;;;;;69.57;36.85;;;6.60;99.90;;;;;;5022506;28;20025;-74
2021/11/04 08:34:38;;;;;;;69.65;36.08;;;6.60;99.90;;;;;;5028216;28;20021;-75
2021/11/04 08:37:05;;;;;;;61.10;35.13;;;6.70;99.90;;;;;;5014955;28;20018;-74
2021/11/04 08:39:31;;;;;;;57.85;33.53;;;6.60;99.90;;;;;;5023664;28;20039;-74
2021/11/04 08:41:56;;;;;;;56.75;34.55;;;6.70;99.90;;;;;;5022085;28;20112;-74
2021/11/04 08:44:23;;;;;;;54.63;31.35;;;6.70;99.90;;;;;;5018869;28;20024;-74
2021/11/04 08:46:49;;;;;;;61.90;34.33;;;6.70;99.90;;;;;;5022290;28;20038;-74
2021/11/04 08:49:15;;;;;;;65.30;35.85;;;6.70;99.90;;;;;;5026444;28;20076;-73
2021/11/04 08:51:41;;;;;;;60.20;33.70;;;6.80;99.90;;;;;;5023756;28;20556;-74
2021/11/04 08:54:07;;;;;;;54.72;32.72;;;6.80;99.90;;;;;;5053122;28;20061;-74
2021/11/04 08:56:39;;;;;;;54.13;32.10;;;6.80;99.90;;;;;;5063773;28;20091;-75
2021/11/04 08:59:05;;;;;;;51.90;30.98;;;6.80;99.90;;;;;;5015909;28;20061;-74
2021/11/04 09:01:33;;;;;;;55.33;31.70;;;6.80;99.90;;;;;;5027146;28;20076;-76
2021/11/04 09:03:58;;;;;;;54.33;32.85;;;6.80;99.90;;;;;;5053831;28;20116;-74
2021/11/04 09:06:25;;;;;;;55.78;32.55;;;6.80;99.90;;;;;;5021451;28;20065;-74
2021/11/04 09:08:51;;;;;;;49.85;30.63;;;6.80;99.90;;;;;;5022809;28;20395;-76
2021/11/04 09:11:16;;;;;;;49.78;31.48;;;6.80;99.90;;;;;;5065348;28;20021;-75
2021/11/04 09:13:42;;;;;;;50.78;30.23;;;6.80;99.90;;;;;;5035622;28;20030;-75
2021/11/04 09:16:08;;;;;;;48.15;30.55;;;6.80;99.90;;;;;;5031923;28;20036;-75
2021/11/04 09:18:34;;;;;;;51.35;31.27;;;6.90;99.90;;;;;;5019076;28;20030;-75
2021/11/04 09:20:59;;;;;;;51.40;32.35;;;6.90;99.90;;;;;;5022162;28;20444;-76
2021/11/04 09:23:25;;;;;;;56.50;32.28;;;6.90;99.90;;;;;;5027232;28;20076;-75
2021/11/04 09:25:51;;;;;;;53.72;32.83;;;6.90;99.90;;;;;;5024912;28;20030;-75
2021/11/04 09:28:17;;;;;;;52.60;31.50;;;6.90;99.90;;;;;;5020037;28;20037;-75
2021/11/04 09:30:42;;;;;;;49.83;30.95;;;6.90;99.90;;;;;;5022104;28;20022;-75
2021/11/04 09:33:09;;;;;;;51.45;30.13;;;6.90;99.90;;;;;;5027110;28;20034;-74
2021/11/04 09:35:36;;;;;;;60.33;32.50;;;7.00;99.90;;;;;;5023899;28;20371;-75
2021/11/04 09:38:05;;;;;;;52.97;31.00;;;7.00;99.90;;;;;;5020173;28;20029;-75
2021/11/04 09:40:31;;;;;;;48.75;30.15;;;7.00;99.90;;;;;;5044570;28;20028;-75
2021/11/04 09:42:57;;;;;;;51.75;30.55;;;7.00;99.90;;;;;;5026591;28;20033;-75
2021/11/04 09:45:28;;;;;;;53.92;30.85;;;7.00;99.90;;;;;;5024493;28;20487;-75
2021/11/04 09:47:53;;;;;;;50.20;29.95;;;7.00;99.90;;;;;;5018685;28;20026;-75
2021/11/04 09:50:20;;;;;;;51.08;30.02;;;7.00;99.90;;;;;;5020220;28;20032;-75
2021/11/04 09:52:49;;;;;;;53.72;30.20;;;7.00;99.90;;;;;;5026351;28;20046;-75
2021/11/04 09:55:20;;;;;;;49.95;29.52;;;7.10;99.90;;;;;;5012317;28;20504;-75
2021/11/04 09:57:47;;;;;;;45.63;28.23;;;7.20;99.90;;;;;;5024416;28;20040;-75
2021/11/04 10:00:14;;;;;;;46.42;28.13;;;7.10;99.90;;;;;;5027860;28;20032;-74
2021/11/04 10:02:43;;;;;;;41.13;26.60;;;7.20;99.90;;;;;;5015043;28;20503;-74
2021/11/04 10:05:10;;;;;;;43.40;27.27;;;7.20;99.90;;;;;;5027831;28;20452;-74
2021/11/04 10:07:50;;;;;;;36.80;24.52;;;7.20;99.90;;;;;;5029618;28;20030;-74
2021/11/04 10:10:18;;;;;;;41.17;25.75;;;7.10;99.90;;;;;;5040831;28;20033;-75
2021/11/04 10:12:59;;;;;;;38.28;23.60;;;7.20;99.90;;;;;;5022097;28;20461;-75
2021/11/04 10:15:25;;;;;;;31.73;22.85;;;7.10;99.90;;;;;;5025147;28;20022;-75
2021/11/04 10:17:51;;;;;;;32.95;21.83;;;7.20;99.90;;;;;;5025665;28;20026;-75
2021/11/04 10:20:27;;;;;;;31.10;22.95;;;7.20;99.90;;;;;;5019629;28;20399;-75
2021/11/04 10:23:13;;;;;;;37.25;25.30;;;7.20;99.90;;;;;;5019255;28;20057;-75
2021/11/04 10:25:39;;;;;;;27.33;19.95;;;7.20;99.90;;;;;;5032973;28;20053;-75
2021/11/04 10:28:29;;;;;;;28.40;20.27;;;7.20;99.90;;;;;;5015189;28;20038;-75
2021/11/04 10:30:56;;;;;;;22.95;17.15;;;7.20;99.90;;;;;;5026050;28;20100;-75
2021/11/04 10:33:27;;;;;;;17.20;13.45;;;7.10;99.90;;;;;;5020032;28;20044;-75
2021/11/04 10:36:05;;;;;;;15.13;12.02;;;7.10;99.90;;;;;;5019195;28;20473;-75
2021/11/04 10:38:37;;;;;;;15.88;12.85;;;7.00;99.90;;;;;;5026716;28;20022;-74
2021/11/04 10:41:06;;;;;;;12.07;10.52;;;7.10;99.90;;;;;;5034665;28;20059;-75
2021/11/04 10:43:33;;;;;;;11.77;9.55;;;7.00;99.90;;;;;;5021584;28;20125;-74
2021/11/04 10:46:07;;;;;;;11.05;9.20;;;7.00;99.90;;;;;;5025626;28;20117;-75
2021/11/04 10:48:36;;;;;;;11.48;9.35;;;6.90;99.90;;;;;;5024755;28;20047;-74
2021/11/04 10:51:02;;;;;;;9.85;8.35;;;6.90;99.90;;;;;;5018674;28;20022;-75
2021/11/04 10:53:28;;;;;;;8.40;7.57;;;7.00;99.90;;;;;;5019621;28;20026;-75
2021/11/04 10:56:13;;;;;;;9.48;7.18;;;6.90;99.90;;;;;;5025549;28;20025;-75
2021/11/04 10:58:39;;;;;;;8.65;7.03;;;6.90;99.90;;;;;;5022336;28;20044;-75
2021/11/04 11:01:05;;;;;;;8.65;7.85;;;6.90;99.90;;;;;;5035000;28;20509;-75
2021/11/04 11:03:32;;;;;;;8.52;7.15;;;7.00;99.90;;;;;;5043725;28;20072;-75
2021/11/04 11:06:08;;;;;;;9.05;7.68;;;6.90;99.90;;;;;;5044220;28;20028;-75
2021/11/04 11:08:34;;;;;;;8.93;8.02;;;7.00;99.90;;;;;;5032433;28;20524;-75
2021/11/04 11:10:59;;;;;;;8.15;7.20;;;6.90;99.90;;;;;;5040495;28;20037;-75
2021/11/04 11:13:25;;;;;;;8.23;7.43;;;6.90;99.90;;;;;;5043011;28;20025;-75
2021/11/04 11:15:55;;;;;;;8.25;7.45;;;6.90;99.90;;;;;;5047305;28;20021;-74
2021/11/04 11:18:25;;;;;;;8.32;7.30;;;6.90;99.90;;;;;;5042039;28;20030;-75
2021/11/04 11:20:52;;;;;;;9.55;8.55;;;6.90;99.90;;;;;;5043238;28;20255;-75
2021/11/04 11:23:23;;;;;;;8.88;7.45;;;7.00;99.90;;;;;;5033034;28;20025;-75
2021/11/04 11:25:56;;;;;;;8.10;7.30;;;6.90;99.90;;;;;;5036701;28;20057;-75
2021/11/04 11:28:28;;;;;;;8.93;8.02;;;6.90;99.90;;;;;;5038320;28;20046;-75
2021/11/04 11:31:09;;;;;;;9.10;7.90;;;7.00;99.90;;;;;;5038102;28;20040;-75
2021/11/04 11:33:35;;;;;;;9.77;8.57;;;7.00;99.90;;;;;;5037648;28;20021;-75
2021/11/04 11:36:08;;;;;;;8.90;7.55;;;6.90;99.90;;;;;;5031441;28;20029;-75
2021/11/04 11:39:03;;;;;;;9.85;8.80;;;6.90;99.90;;;;;;5028708;28;20021;-75
2021/11/04 11:41:55;;;;;;;8.88;7.90;;;6.90;99.90;;;;;;5037202;28;20029;-75
2021/11/04 11:44:37;;;;;;;9.65;8.75;;;6.90;99.90;;;;;;5033617;28;20108;-74
2021/11/04 11:47:05;;;;;;;9.63;8.73;;;7.00;99.90;;;;;;5038050;28;20383;-74
2021/11/04 11:49:32;;;;;;;9.32;8.43;;;6.90;99.90;;;;;;5039667;28;20017;-74
2021/11/04 11:51:58;;;;;;;11.32;8.85;;;6.90;99.90;;;;;;5041614;28;20021;-74
2021/11/04 11:54:49;;;;;;;9.52;8.27;;;7.00;99.90;;;;;;5036181;28;20037;-74
2021/11/04 11:57:15;;;;;;;9.35;8.45;;;6.90;99.90;;;;;;5027563;28;20104;-74
2021/11/04 11:59:58;;;;;;;9.32;8.32;;;6.90;99.90;;;;;;5042788;28;20479;-74
2021/11/04 12:02:41;;;;;;;9.25;8.35;;;6.90;99.90;;;;;;5037513;28;20377;-75
2021/11/04 12:05:23;;;;;;;8.88;7.97;;;6.90;99.90;;;;;;5040578;28;20500;-74
2021/11/04 12:07:50;;;;;;;10.20;9.13;;;6.90;99.90;;;;;;5038447;28;20021;-75
2021/11/04 12:10:30;;;;;;;8.45;7.60;;;7.00;99.90;;;;;;5044334;28;20018;-75
2021/11/04 12:12:57;;;;;;;8.75;7.88;;;6.90;99.90;;;;;;5046558;28;20502;-74
2021/11/04 12:15:23;;;;;;;9.05;8.20;;;7.00;99.90;;;;;;5045263;28;20026;-74
2021/11/04 12:18:18;;;;;;;8.85;7.68;;;7.00;99.90;;;;;;5046392;28;20040;-75
2021/11/04 12:21:02;;;;;;;7.53;6.70;;;7.00;99.90;;;;;;5041437;28;20017;-75
2021/11/04 12:23:35;;;;;;;8.52;7.20;;;7.00;99.90;;;;;;5031381;28;20037;-75
2021/11/04 12:26:07;;;;;;;6.88;6.20;;;7.10;99.90;;;;;;5027187;28;20028;-76
2021/11/04 12:28:42;;;;;;;7.80;6.45;;;7.00;99.90;;;;;;5034073;28;20041;-75
2021/11/04 12:31:13;;;;;;;6.05;5.50;;;7.10;99.90;;;;;;5040270;28;20069;-75
2021/11/04 12:33:39;;;;;;;7.07;6.38;;;7.00;99.90;;;;;;5036351;28;20061;-75
2021/11/04 12:36:59;;;;;;;7.53;6.30;;;7.00;99.90;;;;;;5034374;28;20064;-75
2021/11/04 12:39:30;;;;;;;6.10;5.50;;;7.00;99.90;;;;;;5024721;28;20120;-74
2021/11/04 12:41:59;;;;;;;7.03;6.00;;;7.00;99.90;;;;;;5038568;28;20013;-75
2021/11/04 12:45:34;;;;;;;;;;;;;;;;;;;;;
2021/11/04 12:50:37;;;;;;;6.40;5.50;;;6.90;99.90;;;;;;5220210;23;20058;-75